createdAt,value
2017-11-17T00:01:29.070Z,15.43
2017-11-17T00:03:57.989Z,12.83
2017-11-17T00:06:26.551Z,13.67
2017-11-17T00:08:54.848Z,13.43
2017-11-17T00:11:22.997Z,14.90
2017-11-17T00:13:51.568Z,13.87
2017-11-17T00:16:20.318Z,14.40
2017-11-17T00:18:48.457Z,14.27
2017-11-17T00:21:17.481Z,15.00
2017-11-17T00:23:45.674Z,12.43
2017-11-17T00:26:13.820Z,13.27
2017-11-17T00:28:42.469Z,14.27
2017-11-17T00:31:11.378Z,13.23
2017-11-17T00:33:40.149Z,12.70
2017-11-17T00:36:08.768Z,14.33
2017-11-17T00:38:36.962Z,14.03
2017-11-17T00:41:05.049Z,13.67
2017-11-17T00:43:33.203Z,14.80
2017-11-17T00:46:02.222Z,16.00
2017-11-17T00:48:30.374Z,13.90
2017-11-17T00:50:59.030Z,14.57
2017-11-17T00:53:27.957Z,14.90
2017-11-17T00:55:56.105Z,14.40
2017-11-17T00:58:24.253Z,14.10
2017-11-17T01:00:53.117Z,13.43
2017-11-17T01:03:22.505Z,17.67
2017-11-17T01:05:51.154Z,14.00
2017-11-17T01:08:19.424Z,13.80
2017-11-17T01:10:47.569Z,14.13
2017-11-17T01:13:16.448Z,15.33
2017-11-17T01:15:45.481Z,14.90
2017-11-17T01:18:14.294Z,15.13
2017-11-17T01:20:42.829Z,15.90
2017-11-17T01:23:12.592Z,14.97
2017-11-17T01:25:40.714Z,14.67
2017-11-17T01:28:09.597Z,15.70
2017-11-17T01:30:37.824Z,13.80
2017-11-17T01:33:06.484Z,13.90
2017-11-17T01:35:35.917Z,14.60
2017-11-17T01:38:04.650Z,15.40
2017-11-17T01:40:32.724Z,14.60
2017-11-17T01:43:01.563Z,15.17
2017-11-17T01:45:30.586Z,14.67
2017-11-17T01:47:58.970Z,15.93
2017-11-17T01:50:27.673Z,15.17
2017-11-17T01:52:56.671Z,15.93
2017-11-17T01:55:24.826Z,14.50
2017-11-17T01:57:53.109Z,14.93
2017-11-17T02:00:21.650Z,15.57
2017-11-17T02:02:50.287Z,14.30
2017-11-17T02:05:18.438Z,15.40
2017-11-17T02:07:47.186Z,15.43
2017-11-17T02:10:15.271Z,16.10
2017-11-17T02:12:43.432Z,16.03
2017-11-17T02:15:11.741Z,17.17
2017-11-17T02:17:40.635Z,17.17
2017-11-17T02:20:09.536Z,16.23
2017-11-17T02:22:38.501Z,17.03
2017-11-17T02:25:07.130Z,18.43
2017-11-17T02:27:35.377Z,15.50
2017-11-17T02:30:03.687Z,15.73
2017-11-17T02:32:32.427Z,15.87
2017-11-17T02:35:01.249Z,16.20
2017-11-17T02:37:30.224Z,16.00
2017-11-17T02:39:59.018Z,15.80
2017-11-17T02:42:27.294Z,17.43
2017-11-17T02:44:55.609Z,16.40
2017-11-17T02:47:23.825Z,15.40
2017-11-17T02:49:54.675Z,16.60
2017-11-17T02:52:23.326Z,14.93
2017-11-17T02:54:52.357Z,15.87
2017-11-17T02:57:20.637Z,15.67
2017-11-17T02:59:48.952Z,16.80
2017-11-17T03:02:17.277Z,16.93
2017-11-17T03:04:46.638Z,15.60
2017-11-17T03:07:15.053Z,15.07
2017-11-17T03:09:44.374Z,16.43
2017-11-17T03:12:12.558Z,17.90
2017-11-17T03:14:40.886Z,16.27
2017-11-17T03:17:08.965Z,16.20
2017-11-17T03:19:37.529Z,15.47
2017-11-17T03:22:06.498Z,16.33
2017-11-17T03:24:35.329Z,15.80
2017-11-17T03:27:03.854Z,15.60
2017-11-17T03:29:32.254Z,15.93
2017-11-17T03:32:00.448Z,16.90
2017-11-17T03:34:29.002Z,14.87
2017-11-17T03:36:57.841Z,16.30
2017-11-17T03:39:26.633Z,15.97
2017-11-17T03:41:54.797Z,16.30
2017-11-17T03:44:23.074Z,15.00
2017-11-17T03:46:51.280Z,16.07
2017-11-17T03:49:20.831Z,16.13
2017-11-17T03:51:49.046Z,14.07
2017-11-17T03:54:17.795Z,16.07
2017-11-17T03:56:46.640Z,15.77
2017-11-17T03:59:15.669Z,17.20
2017-11-17T04:01:43.837Z,15.37
2017-11-17T04:04:12.481Z,16.87
2017-11-17T04:06:41.272Z,15.40
2017-11-17T04:09:09.342Z,17.47
2017-11-17T04:11:37.453Z,16.77
2017-11-17T04:14:05.667Z,16.63
2017-11-17T04:16:33.786Z,17.13
2017-11-17T04:19:02.601Z,14.87
2017-11-17T04:21:30.807Z,16.40
2017-11-17T04:23:59.599Z,15.03
2017-11-17T04:26:28.262Z,15.03
2017-11-17T04:28:56.690Z,15.00
2017-11-17T04:31:24.754Z,16.57
2017-11-17T04:33:52.901Z,16.00
2017-11-17T04:36:21.878Z,16.13
2017-11-17T04:38:50.708Z,13.47
2017-11-17T04:41:19.387Z,14.17
2017-11-17T04:43:47.693Z,15.00
2017-11-17T04:46:15.778Z,14.97
2017-11-17T04:48:44.689Z,14.10
2017-11-17T04:51:12.922Z,16.00
2017-11-17T04:53:41.008Z,14.30
2017-11-17T04:56:09.091Z,14.83
2017-11-17T04:58:38.065Z,15.10
2017-11-17T05:01:06.263Z,15.50
2017-11-17T05:03:35.183Z,15.87
2017-11-17T05:06:03.362Z,14.20
2017-11-17T05:08:31.454Z,14.50
2017-11-17T05:10:59.538Z,15.70
2017-11-17T05:13:27.853Z,14.67
2017-11-17T05:15:56.847Z,13.77
2017-11-17T05:18:25.094Z,14.83
2017-11-17T05:20:53.429Z,15.73
2017-11-17T05:23:21.938Z,15.43
2017-11-17T05:25:50.668Z,14.97
2017-11-17T05:28:18.941Z,15.00
2017-11-17T05:30:47.253Z,15.57
2017-11-17T05:33:16.137Z,13.20
2017-11-17T05:35:45.149Z,14.97
2017-11-17T05:38:13.750Z,13.87
2017-11-17T05:40:42.357Z,14.17
2017-11-17T05:43:11.187Z,13.50
2017-11-17T05:45:40.010Z,14.67
2017-11-17T05:48:08.078Z,13.60
2017-11-17T05:50:36.357Z,13.30
2017-11-17T05:53:04.421Z,13.50
2017-11-17T05:55:32.503Z,14.30
2017-11-17T05:58:00.687Z,13.67
2017-11-17T06:00:28.802Z,13.73
2017-11-17T06:02:56.874Z,13.83
2017-11-17T06:05:25.070Z,12.63
2017-11-17T06:07:53.868Z,14.30
2017-11-17T06:10:22.749Z,13.57
2017-11-17T06:12:51.785Z,14.90
2017-11-17T06:15:19.945Z,13.37
2017-11-17T06:17:48.086Z,14.10
2017-11-17T06:20:16.271Z,14.13
2017-11-17T06:22:45.091Z,13.50
2017-11-17T06:25:13.389Z,14.47
2017-11-17T06:27:41.605Z,14.23
2017-11-17T06:30:09.760Z,13.70
2017-11-17T06:32:38.031Z,13.00
2017-11-17T06:35:06.302Z,12.87
2017-11-17T06:37:34.486Z,13.33
2017-11-17T06:40:03.134Z,12.90
2017-11-17T06:42:31.385Z,12.40
2017-11-17T06:45:01.958Z,12.80
2017-11-17T06:47:30.259Z,13.70
2017-11-17T06:49:58.578Z,12.93
2017-11-17T06:52:27.457Z,12.50
2017-11-17T06:54:57.018Z,13.80
2017-11-17T06:57:25.214Z,13.97
2017-11-17T06:59:53.471Z,14.60
2017-11-17T07:02:21.641Z,14.27
2017-11-17T07:04:49.966Z,12.33
2017-11-17T07:07:18.154Z,12.90
2017-11-17T07:09:47.054Z,12.00
2017-11-17T07:12:16.029Z,13.57
2017-11-17T07:14:44.449Z,12.70
2017-11-17T07:17:13.745Z,11.77
2017-11-17T07:19:42.045Z,11.50
2017-11-17T07:22:10.261Z,11.60
2017-11-17T07:24:38.430Z,12.10
2017-11-17T07:27:07.333Z,11.83
2017-11-17T07:29:35.887Z,12.20
2017-11-17T07:32:04.091Z,12.43
2017-11-17T07:34:32.425Z,13.87
2017-11-17T07:37:00.583Z,13.17
2017-11-17T07:39:28.722Z,13.17
2017-11-17T07:41:56.907Z,12.27
2017-11-17T07:44:26.139Z,10.77
2017-11-17T07:46:54.232Z,10.87
2017-11-17T07:49:22.475Z,12.00
2017-11-17T07:51:50.634Z,10.73
2017-11-17T07:54:19.562Z,11.10
2017-11-17T07:56:50.153Z,10.40
2017-11-17T07:59:19.899Z,10.27
2017-11-17T08:01:49.045Z,11.00
2017-11-17T08:04:17.138Z,9.63
2017-11-17T08:06:45.957Z,9.87
2017-11-17T08:09:14.158Z,9.90
2017-11-17T08:11:42.238Z,10.77
2017-11-17T08:14:10.308Z,9.43
2017-11-17T08:16:38.510Z,11.20
2017-11-17T08:19:06.926Z,12.40
2017-11-17T08:21:35.921Z,10.13
2017-11-17T08:24:04.203Z,10.60
2017-11-17T08:26:32.274Z,9.90
2017-11-17T08:29:00.471Z,10.20
2017-11-17T08:31:28.798Z,9.53
2017-11-17T08:33:56.942Z,10.93
2017-11-17T08:36:25.170Z,9.87
2017-11-17T08:38:54.221Z,10.00
2017-11-17T08:41:22.338Z,9.30
2017-11-17T08:43:51.237Z,9.30
2017-11-17T08:46:20.240Z,9.70
2017-11-17T08:48:48.785Z,9.70
2017-11-17T08:51:16.989Z,11.60
2017-11-17T08:53:45.959Z,10.73
2017-11-17T08:56:14.173Z,10.47
2017-11-17T08:58:42.836Z,9.20
2017-11-17T09:01:12.011Z,11.00
2017-11-17T09:03:40.794Z,9.30
2017-11-17T09:06:08.877Z,10.90
2017-11-17T09:08:37.065Z,10.37
2017-11-17T09:11:05.314Z,9.77
2017-11-17T09:13:33.377Z,11.07
2017-11-17T09:16:02.254Z,10.77
2017-11-17T09:18:30.781Z,9.60
2017-11-17T09:20:58.922Z,10.30
2017-11-17T09:23:27.237Z,10.40
2017-11-17T09:25:55.397Z,9.57
2017-11-17T09:28:24.197Z,11.33
2017-11-17T09:30:53.154Z,10.77
2017-11-17T09:33:21.517Z,9.33
2017-11-17T09:35:49.683Z,9.30
2017-11-17T09:38:18.115Z,9.53
2017-11-17T09:40:46.213Z,10.40
2017-11-17T09:43:14.373Z,9.87
2017-11-17T09:45:43.226Z,10.23
2017-11-17T09:48:12.072Z,9.93
2017-11-17T09:50:41.069Z,9.57
2017-11-17T09:53:10.169Z,10.63
2017-11-17T09:55:39.101Z,10.40
2017-11-17T09:58:07.821Z,10.40
2017-11-17T10:00:36.114Z,10.30
2017-11-17T10:03:04.901Z,9.97
2017-11-17T10:05:33.055Z,10.93
2017-11-17T10:08:01.273Z,11.77
2017-11-17T10:10:30.200Z,11.50
2017-11-17T10:12:58.652Z,12.20
2017-11-17T10:15:27.623Z,12.70
2017-11-17T10:17:56.249Z,11.40
2017-11-17T10:20:24.956Z,11.23
2017-11-17T10:22:53.484Z,11.30
2017-11-17T10:25:22.522Z,10.70
2017-11-17T10:27:56.187Z,12.23
2017-11-17T10:30:26.166Z,11.93
2017-11-17T10:32:54.881Z,11.30
2017-11-17T10:35:23.110Z,11.20
2017-11-17T10:37:51.438Z,11.30
2017-11-17T10:40:19.967Z,11.83
2017-11-17T10:42:48.315Z,11.20
2017-11-17T10:45:18.746Z,12.03
2017-11-17T10:47:48.622Z,12.40
2017-11-17T10:50:17.515Z,12.40
2017-11-17T10:52:45.850Z,12.10
2017-11-17T10:55:13.958Z,11.37
2017-11-17T10:57:42.067Z,10.50
2017-11-17T11:00:10.366Z,11.70
2017-11-17T11:02:39.951Z,11.93
2017-11-17T11:05:08.646Z,12.13
2017-11-17T11:07:36.854Z,11.60
2017-11-17T11:10:05.106Z,11.00
2017-11-17T11:12:34.015Z,11.30
2017-11-17T11:15:03.037Z,12.30
2017-11-17T11:17:31.740Z,11.50
2017-11-17T11:20:01.229Z,12.57
2017-11-17T11:22:29.458Z,11.93
2017-11-17T11:24:57.550Z,11.10
2017-11-17T11:27:26.501Z,11.40
2017-11-17T11:29:55.694Z,12.30
2017-11-17T11:32:24.199Z,11.83
2017-11-17T11:34:52.929Z,12.07
2017-11-17T11:37:21.777Z,11.13
2017-11-17T11:39:50.583Z,11.07
2017-11-17T11:42:20.119Z,12.90
2017-11-17T11:44:49.391Z,11.03
2017-11-17T11:47:18.745Z,10.40
2017-11-17T11:49:47.452Z,11.70
2017-11-17T11:52:16.525Z,11.70
2017-11-17T11:54:45.207Z,12.20
2017-11-17T11:57:13.393Z,11.87
2017-11-17T11:59:41.660Z,11.57
2017-11-17T12:02:10.446Z,10.93
2017-11-17T12:04:39.885Z,13.03
2017-11-17T12:07:08.094Z,11.93
2017-11-17T12:09:38.590Z,12.40
2017-11-17T12:12:06.721Z,11.17
2017-11-17T12:14:35.001Z,10.67
2017-11-17T12:17:03.659Z,11.27
2017-11-17T12:19:33.189Z,12.20
2017-11-17T12:22:01.909Z,12.17
2017-11-17T12:24:30.467Z,12.80
2017-11-17T12:26:58.548Z,12.40
2017-11-17T12:29:26.741Z,13.63
2017-11-17T12:31:54.896Z,12.60
2017-11-17T12:34:22.978Z,12.03
2017-11-17T12:36:51.918Z,13.00
2017-11-17T12:39:20.438Z,12.20
2017-11-17T12:41:48.582Z,12.07
2017-11-17T12:44:17.853Z,12.60
2017-11-17T12:46:45.926Z,12.63
2017-11-17T12:49:14.629Z,12.30
2017-11-17T12:51:42.815Z,11.90
2017-11-17T12:54:12.212Z,13.07
2017-11-17T12:56:40.373Z,12.40
2017-11-17T12:59:08.587Z,11.60
2017-11-17T13:01:36.734Z,14.00
2017-11-17T13:04:05.570Z,12.70
2017-11-17T13:06:34.530Z,11.83
2017-11-17T13:09:03.398Z,12.90
2017-11-17T13:11:31.494Z,11.93
2017-11-17T13:14:00.444Z,11.60
2017-11-17T13:16:28.510Z,12.03
2017-11-17T13:18:57.194Z,12.77
2017-11-17T13:21:25.968Z,13.90
2017-11-17T13:23:54.662Z,12.00
2017-11-17T13:26:22.763Z,13.47
2017-11-17T13:28:51.033Z,12.90
2017-11-17T13:31:19.122Z,12.40
2017-11-17T13:33:47.733Z,11.37
2017-11-17T13:36:17.291Z,12.57
2017-11-17T13:38:46.025Z,14.23
2017-11-17T13:41:14.094Z,12.60
2017-11-17T13:43:42.353Z,12.00
2017-11-17T13:46:10.575Z,12.17
2017-11-17T13:48:39.967Z,12.97
2017-11-17T13:51:09.399Z,12.30
2017-11-17T13:53:37.950Z,14.40
2017-11-17T13:56:06.791Z,12.53
2017-11-17T13:58:35.073Z,12.40
2017-11-17T14:01:03.147Z,13.00
2017-11-17T14:03:31.762Z,13.33
2017-11-17T14:06:00.616Z,13.07
2017-11-17T14:08:28.694Z,12.60
2017-11-17T14:10:57.049Z,11.60
2017-11-17T14:13:25.409Z,12.90
2017-11-17T14:15:54.361Z,12.50
2017-11-17T14:18:22.426Z,12.30
2017-11-17T14:20:51.205Z,14.03
2017-11-17T14:23:19.360Z,13.93
2017-11-17T14:25:47.992Z,13.00
2017-11-17T14:28:16.190Z,14.30
2017-11-17T14:30:44.474Z,14.73
2017-11-17T14:33:13.750Z,14.90
2017-11-17T14:35:43.623Z,14.97
2017-11-17T14:38:11.829Z,15.90
2017-11-17T14:40:40.042Z,16.37
2017-11-17T14:43:09.594Z,15.03
2017-11-17T14:45:37.765Z,13.97
2017-11-17T14:48:05.966Z,14.10
2017-11-17T14:50:34.257Z,13.70
2017-11-17T14:53:02.953Z,13.10
2017-11-17T14:55:31.737Z,13.37
2017-11-17T14:58:00.548Z,12.40
2017-11-17T15:00:29.584Z,12.03
2017-11-17T15:02:57.706Z,13.13
2017-11-17T15:05:26.432Z,12.90
2017-11-17T15:07:55.134Z,12.63
2017-11-17T15:10:23.838Z,12.30
2017-11-17T15:12:52.442Z,15.00
2017-11-17T15:15:20.570Z,13.47
2017-11-17T15:17:48.761Z,12.70
2017-11-17T15:20:17.698Z,13.80
2017-11-17T15:22:46.362Z,15.47
2017-11-17T15:25:15.255Z,12.50
2017-11-17T15:27:45.045Z,14.10
2017-11-17T15:30:13.296Z,13.20
2017-11-17T15:32:41.502Z,13.07
2017-11-17T15:35:10.338Z,15.13
2017-11-17T15:37:38.981Z,15.57
2017-11-17T15:40:07.783Z,16.53
2017-11-17T15:42:36.544Z,15.30
2017-11-17T15:45:05.228Z,15.03
2017-11-17T15:47:33.298Z,15.47
2017-11-17T15:50:01.743Z,15.63
2017-11-17T15:52:29.960Z,15.23
2017-11-17T15:54:58.138Z,15.50
2017-11-17T15:57:26.366Z,15.97
2017-11-17T15:59:56.540Z,15.70
2017-11-17T16:02:24.853Z,15.43
2017-11-17T16:04:53.260Z,15.70
2017-11-17T16:07:22.862Z,16.67
2017-11-17T16:09:51.829Z,17.10
2017-11-17T16:12:20.853Z,18.00
2017-11-17T16:14:49.230Z,18.80
2017-11-17T16:17:17.326Z,19.93
2017-11-17T16:19:46.393Z,17.70
2017-11-17T16:22:14.653Z,18.20
2017-11-17T16:24:42.844Z,17.40
2017-11-17T16:27:11.501Z,15.17
2017-11-17T16:29:39.823Z,14.90
2017-11-17T16:32:09.317Z,14.93
2017-11-17T16:34:38.416Z,16.27
2017-11-17T16:37:07.669Z,18.07
2017-11-17T16:39:36.370Z,15.73
2017-11-17T16:42:11.473Z,18.20
2017-11-17T16:44:40.289Z,18.70
2017-11-17T16:47:08.582Z,18.43
2017-11-17T16:49:37.019Z,18.40
2017-11-17T16:52:06.065Z,17.17
2017-11-17T16:54:34.877Z,16.40
2017-11-17T16:57:03.870Z,16.40
2017-11-17T16:59:32.710Z,16.30
2017-11-17T17:02:00.817Z,16.80
2017-11-17T17:04:29.166Z,15.80
2017-11-17T17:06:57.337Z,13.80
2017-11-17T17:09:25.535Z,15.73
2017-11-17T17:11:53.914Z,16.50
2017-11-17T17:14:22.633Z,18.93
2017-11-17T17:16:50.750Z,16.73
2017-11-17T17:19:19.062Z,16.30
2017-11-17T17:21:47.163Z,14.60
2017-11-17T17:24:17.334Z,15.97
2017-11-17T17:26:45.628Z,16.10
2017-11-17T17:29:13.815Z,15.03
2017-11-17T17:31:41.912Z,13.60
2017-11-17T17:34:10.098Z,15.73
2017-11-17T17:36:38.948Z,18.60
2017-11-17T17:39:07.102Z,16.90
2017-11-17T17:41:35.342Z,15.53
2017-11-17T17:44:04.745Z,13.20
2017-11-17T17:46:34.399Z,14.57
2017-11-17T17:49:02.604Z,13.30
2017-11-17T17:51:30.895Z,12.67
2017-11-17T17:53:59.959Z,14.23
2017-11-17T17:56:28.807Z,14.10
2017-11-17T17:58:57.723Z,15.23
2017-11-17T18:01:26.422Z,12.97
2017-11-17T18:03:54.955Z,13.80
2017-11-17T18:06:23.118Z,13.30
2017-11-17T18:08:51.328Z,13.83
2017-11-17T18:11:20.638Z,18.97
2017-11-17T18:13:49.243Z,24.40
2017-11-17T18:16:18.028Z,18.67
2017-11-17T18:18:47.053Z,14.60
2017-11-17T18:21:15.227Z,15.10
2017-11-17T18:23:43.303Z,15.10
2017-11-17T18:26:12.014Z,13.93
2017-11-17T18:28:41.682Z,13.70
2017-11-17T18:31:10.188Z,11.93
2017-11-17T18:33:38.873Z,12.57
2017-11-17T18:36:06.984Z,13.17
2017-11-17T18:38:35.820Z,12.27
2017-11-17T18:41:04.525Z,14.90
2017-11-17T18:43:32.686Z,13.03
2017-11-17T18:46:01.356Z,12.57
2017-11-17T18:48:29.633Z,12.13
2017-11-17T18:50:57.772Z,12.43
2017-11-17T18:53:26.670Z,12.63
2017-11-17T18:55:56.195Z,14.03
2017-11-17T18:58:24.893Z,11.93
2017-11-17T19:00:53.526Z,12.07
2017-11-17T19:03:22.710Z,13.40
2017-11-17T19:05:51.033Z,14.43
2017-11-17T19:08:19.152Z,14.03
2017-11-17T19:10:47.396Z,14.20
2017-11-17T19:13:16.060Z,14.30
2017-11-17T19:15:45.568Z,14.90
2017-11-17T19:18:15.098Z,15.10
2017-11-17T19:20:43.942Z,14.53
2017-11-17T19:23:12.094Z,11.80
2017-11-17T19:25:40.361Z,13.30
2017-11-17T19:28:09.041Z,13.57
2017-11-17T19:30:37.181Z,11.87
2017-11-17T19:33:06.613Z,13.30
2017-11-17T19:35:34.698Z,12.83
2017-11-17T19:38:02.766Z,13.53
2017-11-17T19:40:31.034Z,13.13
2017-11-17T19:42:59.959Z,13.70
2017-11-17T19:45:28.454Z,13.87
2017-11-17T19:47:57.348Z,13.03
2017-11-17T19:50:25.512Z,13.00
2017-11-17T19:52:53.713Z,12.67
2017-11-17T19:55:21.900Z,13.07
2017-11-17T19:57:50.929Z,13.87
2017-11-17T20:00:19.447Z,12.50
2017-11-17T20:02:48.254Z,13.87
2017-11-17T20:05:16.941Z,13.93
2017-11-17T20:07:45.096Z,15.00
2017-11-17T20:10:13.293Z,16.00
2017-11-17T20:12:41.837Z,13.20
2017-11-17T20:15:10.401Z,14.17
2017-11-17T20:17:39.195Z,13.17
2017-11-17T20:20:07.290Z,13.27
2017-11-17T20:22:35.365Z,12.00
2017-11-17T20:25:03.578Z,12.53
2017-11-17T20:27:33.150Z,13.53
2017-11-17T20:30:01.790Z,12.30
2017-11-17T20:32:31.532Z,12.27
2017-11-17T20:35:00.348Z,13.27
2017-11-17T20:37:28.415Z,13.10
2017-11-17T20:39:56.962Z,12.77
2017-11-17T20:42:25.023Z,12.53
2017-11-17T20:44:54.459Z,11.90
2017-11-17T20:47:22.659Z,12.93
2017-11-17T20:49:51.548Z,12.60
2017-11-17T20:52:19.634Z,11.33
2017-11-17T20:54:47.904Z,13.63
2017-11-17T20:57:15.986Z,14.37
2017-11-17T20:59:45.033Z,12.60
2017-11-17T21:02:14.085Z,11.97
2017-11-17T21:04:42.245Z,12.93
2017-11-17T21:07:10.832Z,12.93
2017-11-17T21:09:39.026Z,13.17
2017-11-17T21:12:07.181Z,11.30
2017-11-17T21:14:35.329Z,12.37
2017-11-17T21:17:04.170Z,11.93
2017-11-17T21:19:33.738Z,12.70
2017-11-17T21:22:02.341Z,13.07
2017-11-17T21:24:30.613Z,13.20
2017-11-17T21:26:58.687Z,11.53
2017-11-17T21:29:27.488Z,13.77
2017-11-17T21:31:55.759Z,13.53
2017-11-17T21:34:24.396Z,13.33
2017-11-17T21:36:52.993Z,12.67
2017-11-17T21:39:21.265Z,12.60
2017-11-17T21:41:49.410Z,12.57
2017-11-17T21:44:19.001Z,12.70
2017-11-17T21:46:47.785Z,12.70
2017-11-17T21:49:16.538Z,13.60
2017-11-17T21:51:45.386Z,12.77
2017-11-17T21:54:14.390Z,13.00
2017-11-17T21:56:43.198Z,12.83
2017-11-17T21:59:11.687Z,13.90
2017-11-17T22:01:40.581Z,13.90
2017-11-17T22:04:09.163Z,13.20
2017-11-17T22:06:37.963Z,12.90
2017-11-17T22:09:06.154Z,13.23
2017-11-17T22:11:34.358Z,13.57
2017-11-17T22:14:02.426Z,14.20
2017-11-17T22:16:30.626Z,13.87
2017-11-17T22:18:59.815Z,13.90
2017-11-17T22:21:28.705Z,12.53
2017-11-17T22:23:58.363Z,11.87
2017-11-17T22:26:26.509Z,12.90
2017-11-17T22:28:56.140Z,11.90
2017-11-17T22:31:25.098Z,11.60
2017-11-17T22:33:54.429Z,13.30
2017-11-17T22:36:23.221Z,11.93
2017-11-17T22:38:52.214Z,12.57
2017-11-17T22:41:20.308Z,12.43
2017-11-17T22:43:48.454Z,12.60
2017-11-17T22:46:17.161Z,12.50
2017-11-17T22:48:45.740Z,12.20
2017-11-17T22:51:14.522Z,13.43
2017-11-17T22:53:43.441Z,14.03
2017-11-17T22:56:11.595Z,13.37
2017-11-17T22:58:39.763Z,12.50
2017-11-17T23:01:07.954Z,12.50
2017-11-17T23:03:36.837Z,11.60
2017-11-17T23:06:05.533Z,13.47
2017-11-17T23:08:34.572Z,13.80
2017-11-17T23:11:02.638Z,13.10
2017-11-17T23:13:30.700Z,12.20
2017-11-17T23:15:59.673Z,14.83
2017-11-17T23:18:28.313Z,12.67
2017-11-17T23:20:57.957Z,13.67
2017-11-17T23:23:26.914Z,13.10
2017-11-17T23:25:55.733Z,13.03
2017-11-17T23:28:23.877Z,13.83
2017-11-17T23:30:53.278Z,11.90
2017-11-17T23:33:21.450Z,13.50
2017-11-17T23:35:50.217Z,14.40
2017-11-17T23:38:18.974Z,13.70
2017-11-17T23:40:47.662Z,12.83
2017-11-17T23:43:15.823Z,13.93
2017-11-17T23:45:44.087Z,13.23
2017-11-17T23:48:13.746Z,14.10
2017-11-17T23:50:42.679Z,12.70
2017-11-17T23:53:12.480Z,12.77
2017-11-17T23:55:41.122Z,12.77
2017-11-17T23:58:09.255Z,12.93
